sensor_id;sensor_type;location;lat;lon;timestamp;temperature;humidity
64715;DHT22;51144;53.002;6.506;2023-04-03T00:00:49;3.20;99.90
64715;DHT22;51144;53.002;6.506;2023-04-03T00:03:16;3.20;99.90
64715;DHT22;51144;53.002;6.506;2023-04-03T00:05:41;3.20;99.90
64715;DHT22;51144;53.002;6.506;2023-04-03T00:08:07;3.10;99.90
64715;DHT22;51144;53.002;6.506;2023-04-03T00:10:35;3.10;99.90
64715;DHT22;51144;53.002;6.506;2023-04-03T00:13:02;3.10;99.90
64715;DHT22;51144;53.002;6.506;2023-04-03T00:15:28;3.10;99.90
64715;DHT22;51144;53.002;6.506;2023-04-03T00:17:54;3.10;99.90
64715;DHT22;51144;53.002;6.506;2023-04-03T00:20:19;3.00;99.90
64715;DHT22;51144;53.002;6.506;2023-04-03T00:22:45;3.00;99.90
64715;DHT22;51144;53.002;6.506;2023-04-03T00:25:11;3.00;99.90
64715;DHT22;51144;53.002;6.506;2023-04-03T00:27:38;3.00;99.90
64715;DHT22;51144;53.002;6.506;2023-04-03T00:30:06;2.90;99.90
64715;DHT22;51144;53.002;6.506;2023-04-03T00:32:32;2.90;99.90
64715;DHT22;51144;53.002;6.506;2023-04-03T00:34:58;2.90;99.90
64715;DHT22;51144;53.002;6.506;2023-04-03T00:37:24;2.90;99.90
64715;DHT22;51144;53.002;6.506;2023-04-03T00:39:49;2.80;99.90
64715;DHT22;51144;53.002;6.506;2023-04-03T00:42:15;2.80;99.90
64715;DHT22;51144;53.002;6.506;2023-04-03T00:47:09;2.70;99.90
64715;DHT22;51144;53.002;6.506;2023-04-03T00:49:37;2.70;99.90
64715;DHT22;51144;53.002;6.506;2023-04-03T00:52:05;2.70;99.90
64715;DHT22;51144;53.002;6.506;2023-04-03T00:54:32;2.60;99.90
64715;DHT22;51144;53.002;6.506;2023-04-03T00:57:00;2.60;99.90
64715;DHT22;51144;53.002;6.506;2023-04-03T00:59:31;2.60;99.90
64715;DHT22;51144;53.002;6.506;2023-04-03T01:01:59;2.50;99.90
64715;DHT22;51144;53.002;6.506;2023-04-03T01:04:36;2.50;99.90
64715;DHT22;51144;53.002;6.506;2023-04-03T01:07:24;2.50;99.90
64715;DHT22;51144;53.002;6.506;2023-04-03T01:09:56;2.50;99.90
64715;DHT22;51144;53.002;6.506;2023-04-03T01:15:01;2.40;99.90
64715;DHT22;51144;53.002;6.506;2023-04-03T01:25:13;2.30;99.90
64715;DHT22;51144;53.002;6.506;2023-04-03T01:27:38;2.20;99.90
64715;DHT22;51144;53.002;6.506;2023-04-03T01:30:05;2.20;99.90
64715;DHT22;51144;53.002;6.506;2023-04-03T01:32:31;2.10;99.90
64715;DHT22;51144;53.002;6.506;2023-04-03T01:34:56;2.10;99.90
64715;DHT22;51144;53.002;6.506;2023-04-03T01:37:22;2.10;99.90
64715;DHT22;51144;53.002;6.506;2023-04-03T01:39:47;2.00;99.90
64715;DHT22;51144;53.002;6.506;2023-04-03T01:42:13;2.10;99.90
64715;DHT22;51144;53.002;6.506;2023-04-03T01:44:38;2.00;99.90
64715;DHT22;51144;53.002;6.506;2023-04-03T01:47:06;2.00;99.90
64715;DHT22;51144;53.002;6.506;2023-04-03T01:49:32;1.90;99.90
64715;DHT22;51144;53.002;6.506;2023-04-03T01:51:58;1.90;99.90
64715;DHT22;51144;53.002;6.506;2023-04-03T01:54:23;1.90;99.90
64715;DHT22;51144;53.002;6.506;2023-04-03T01:56:49;1.80;99.90
64715;DHT22;51144;53.002;6.506;2023-04-03T01:59:15;1.80;99.90
64715;DHT22;51144;53.002;6.506;2023-04-03T02:01:43;1.80;99.90
64715;DHT22;51144;53.002;6.506;2023-04-03T02:04:11;1.80;99.90
64715;DHT22;51144;53.002;6.506;2023-04-03T02:06:37;1.80;99.90
64715;DHT22;51144;53.002;6.506;2023-04-03T02:09:03;1.70;99.90
64715;DHT22;51144;53.002;6.506;2023-04-03T02:11:28;1.70;99.90
64715;DHT22;51144;53.002;6.506;2023-04-03T02:13:54;1.70;99.90
64715;DHT22;51144;53.002;6.506;2023-04-03T02:16:20;1.70;99.90
64715;DHT22;51144;53.002;6.506;2023-04-03T02:18:45;1.70;99.90
64715;DHT22;51144;53.002;6.506;2023-04-03T02:21:11;1.60;99.90
64715;DHT22;51144;53.002;6.506;2023-04-03T02:23:36;1.60;99.90
64715;DHT22;51144;53.002;6.506;2023-04-03T02:26:14;1.50;99.90
64715;DHT22;51144;53.002;6.506;2023-04-03T02:28:40;1.50;99.90
64715;DHT22;51144;53.002;6.506;2023-04-03T02:31:07;1.50;99.90
64715;DHT22;51144;53.002;6.506;2023-04-03T02:33:33;1.50;99.90
64715;DHT22;51144;53.002;6.506;2023-04-03T02:35:58;1.50;99.90
64715;DHT22;51144;53.002;6.506;2023-04-03T02:38:25;1.40;99.90
64715;DHT22;51144;53.002;6.506;2023-04-03T02:40:51;1.40;99.90
64715;DHT22;51144;53.002;6.506;2023-04-03T02:43:17;1.40;99.90
64715;DHT22;51144;53.002;6.506;2023-04-03T02:45:43;1.30;99.90
64715;DHT22;51144;53.002;6.506;2023-04-03T02:48:09;1.30;99.90
64715;DHT22;51144;53.002;6.506;2023-04-03T02:50:35;1.30;99.90
64715;DHT22;51144;53.002;6.506;2023-04-03T02:53:01;1.30;99.90
64715;DHT22;51144;53.002;6.506;2023-04-03T02:55:26;1.30;99.90
64715;DHT22;51144;53.002;6.506;2023-04-03T02:57:52;1.20;99.90
64715;DHT22;51144;53.002;6.506;2023-04-03T03:00:18;1.20;99.90
64715;DHT22;51144;53.002;6.506;2023-04-03T03:02:43;1.10;99.90
64715;DHT22;51144;53.002;6.506;2023-04-03T03:05:09;1.10;99.90
64715;DHT22;51144;53.002;6.506;2023-04-03T03:07:35;1.10;99.90
64715;DHT22;51144;53.002;6.506;2023-04-03T03:10:00;1.10;99.90
64715;DHT22;51144;53.002;6.506;2023-04-03T03:12:26;1.00;99.90
64715;DHT22;51144;53.002;6.506;2023-04-03T03:14:51;1.00;99.90
64715;DHT22;51144;53.002;6.506;2023-04-03T03:17:17;1.00;99.90
64715;DHT22;51144;53.002;6.506;2023-04-03T03:19:43;0.90;99.90
64715;DHT22;51144;53.002;6.506;2023-04-03T03:22:11;0.90;99.90
64715;DHT22;51144;53.002;6.506;2023-04-03T03:24:36;0.90;99.90
64715;DHT22;51144;53.002;6.506;2023-04-03T03:27:02;0.80;99.90
64715;DHT22;51144;53.002;6.506;2023-04-03T03:29:28;0.80;99.90
64715;DHT22;51144;53.002;6.506;2023-04-03T03:31:53;0.80;99.90
64715;DHT22;51144;53.002;6.506;2023-04-03T03:34:19;0.80;99.90
64715;DHT22;51144;53.002;6.506;2023-04-03T03:36:45;0.80;99.90
64715;DHT22;51144;53.002;6.506;2023-04-03T03:39:10;0.70;99.90
64715;DHT22;51144;53.002;6.506;2023-04-03T03:41:36;0.70;99.90
64715;DHT22;51144;53.002;6.506;2023-04-03T03:44:02;0.70;99.90
64715;DHT22;51144;53.002;6.506;2023-04-03T03:46:27;0.70;99.90
64715;DHT22;51144;53.002;6.506;2023-04-03T03:48:53;0.60;99.90
64715;DHT22;51144;53.002;6.506;2023-04-03T03:51:18;0.60;99.90
64715;DHT22;51144;53.002;6.506;2023-04-03T03:53:44;0.60;99.90
64715;DHT22;51144;53.002;6.506;2023-04-03T03:56:10;0.50;99.90
64715;DHT22;51144;53.002;6.506;2023-04-03T03:58:35;0.40;99.90
64715;DHT22;51144;53.002;6.506;2023-04-03T04:01:03;0.40;99.90
64715;DHT22;51144;53.002;6.506;2023-04-03T04:03:29;0.40;99.90
64715;DHT22;51144;53.002;6.506;2023-04-03T04:05:54;0.40;99.90
64715;DHT22;51144;53.002;6.506;2023-04-03T04:08:20;0.40;99.90
64715;DHT22;51144;53.002;6.506;2023-04-03T04:10:45;0.40;99.90
64715;DHT22;51144;53.002;6.506;2023-04-03T04:13:11;0.40;99.90
64715;DHT22;51144;53.002;6.506;2023-04-03T04:15:37;0.40;99.90
64715;DHT22;51144;53.002;6.506;2023-04-03T04:18:02;0.40;99.90
64715;DHT22;51144;53.002;6.506;2023-04-03T04:20:28;0.40;99.90
64715;DHT22;51144;53.002;6.506;2023-04-03T04:22:54;0.30;99.90
64715;DHT22;51144;53.002;6.506;2023-04-03T04:25:20;0.40;99.90
64715;DHT22;51144;53.002;6.506;2023-04-03T04:27:46;0.40;99.90
64715;DHT22;51144;53.002;6.506;2023-04-03T04:30:12;0.30;99.90
64715;DHT22;51144;53.002;6.506;2023-04-03T04:32:38;0.30;99.90
64715;DHT22;51144;53.002;6.506;2023-04-03T04:35:04;0.30;99.90
64715;DHT22;51144;53.002;6.506;2023-04-03T04:37:30;0.30;99.90
64715;DHT22;51144;53.002;6.506;2023-04-03T04:39:55;0.30;99.90
64715;DHT22;51144;53.002;6.506;2023-04-03T04:42:21;0.30;99.90
64715;DHT22;51144;53.002;6.506;2023-04-03T04:44:47;0.30;99.90
64715;DHT22;51144;53.002;6.506;2023-04-03T04:47:12;0.30;99.90
64715;DHT22;51144;53.002;6.506;2023-04-03T04:49:38;0.30;99.90
64715;DHT22;51144;53.002;6.506;2023-04-03T04:52:04;0.30;99.90
64715;DHT22;51144;53.002;6.506;2023-04-03T04:54:29;0.30;99.90
64715;DHT22;51144;53.002;6.506;2023-04-03T04:56:55;0.30;99.90
64715;DHT22;51144;53.002;6.506;2023-04-03T04:59:21;0.30;99.90
64715;DHT22;51144;53.002;6.506;2023-04-03T05:01:46;0.30;99.90
64715;DHT22;51144;53.002;6.506;2023-04-03T05:04:12;0.30;99.90
64715;DHT22;51144;53.002;6.506;2023-04-03T05:06:39;0.30;99.90
64715;DHT22;51144;53.002;6.506;2023-04-03T05:09:05;0.30;99.90
64715;DHT22;51144;53.002;6.506;2023-04-03T05:11:30;0.30;99.90
64715;DHT22;51144;53.002;6.506;2023-04-03T05:13:56;0.30;99.90
64715;DHT22;51144;53.002;6.506;2023-04-03T05:16:22;0.30;99.90
64715;DHT22;51144;53.002;6.506;2023-04-03T05:18:47;0.30;99.90
64715;DHT22;51144;53.002;6.506;2023-04-03T05:21:13;0.30;99.90
64715;DHT22;51144;53.002;6.506;2023-04-03T05:23:39;0.30;99.90
64715;DHT22;51144;53.002;6.506;2023-04-03T05:26:04;0.40;99.90
64715;DHT22;51144;53.002;6.506;2023-04-03T05:28:30;0.50;99.90
64715;DHT22;51144;53.002;6.506;2023-04-03T05:30:57;0.80;99.90
64715;DHT22;51144;53.002;6.506;2023-04-03T05:33:24;1.00;99.90
64715;DHT22;51144;53.002;6.506;2023-04-03T05:35:52;1.20;99.90
64715;DHT22;51144;53.002;6.506;2023-04-03T05:38:17;1.40;99.90
64715;DHT22;51144;53.002;6.506;2023-04-03T05:40:43;1.80;99.90
64715;DHT22;51144;53.002;6.506;2023-04-03T05:43:09;2.00;99.90
64715;DHT22;51144;53.002;6.506;2023-04-03T05:45:35;2.10;99.90
64715;DHT22;51144;53.002;6.506;2023-04-03T05:48:00;2.30;99.90
64715;DHT22;51144;53.002;6.506;2023-04-03T05:50:26;2.50;99.90
64715;DHT22;51144;53.002;6.506;2023-04-03T05:52:55;2.60;99.90
64715;DHT22;51144;53.002;6.506;2023-04-03T05:55:21;2.80;99.90
64715;DHT22;51144;53.002;6.506;2023-04-03T05:57:47;3.00;99.90
64715;DHT22;51144;53.002;6.506;2023-04-03T06:00:13;3.20;99.90
64715;DHT22;51144;53.002;6.506;2023-04-03T06:02:41;3.40;99.90
64715;DHT22;51144;53.002;6.506;2023-04-03T06:05:08;3.50;99.90
64715;DHT22;51144;53.002;6.506;2023-04-03T06:07:34;3.50;99.90
64715;DHT22;51144;53.002;6.506;2023-04-03T06:10:01;3.70;99.90
64715;DHT22;51144;53.002;6.506;2023-04-03T06:12:27;3.80;99.90
64715;DHT22;51144;53.002;6.506;2023-04-03T06:14:55;3.90;99.90
64715;DHT22;51144;53.002;6.506;2023-04-03T06:17:20;3.90;99.90
64715;DHT22;51144;53.002;6.506;2023-04-03T06:19:47;3.90;99.90
64715;DHT22;51144;53.002;6.506;2023-04-03T06:22:13;4.00;99.90
64715;DHT22;51144;53.002;6.506;2023-04-03T06:24:39;4.30;99.90
64715;DHT22;51144;53.002;6.506;2023-04-03T06:27:04;4.20;99.90
64715;DHT22;51144;53.002;6.506;2023-04-03T06:29:30;4.60;99.90
64715;DHT22;51144;53.002;6.506;2023-04-03T06:31:56;5.00;99.90
64715;DHT22;51144;53.002;6.506;2023-04-03T06:34:22;4.80;99.90
64715;DHT22;51144;53.002;6.506;2023-04-03T06:36:48;5.00;99.90
64715;DHT22;51144;53.002;6.506;2023-04-03T06:39:21;5.10;99.90
64715;DHT22;51144;53.002;6.506;2023-04-03T06:41:48;5.10;99.90
64715;DHT22;51144;53.002;6.506;2023-04-03T06:44:14;5.50;99.90
64715;DHT22;51144;53.002;6.506;2023-04-03T06:46:42;5.70;99.90
64715;DHT22;51144;53.002;6.506;2023-04-03T06:49:08;5.90;99.90
64715;DHT22;51144;53.002;6.506;2023-04-03T06:51:34;5.90;99.90
64715;DHT22;51144;53.002;6.506;2023-04-03T06:54:01;6.00;99.90
64715;DHT22;51144;53.002;6.506;2023-04-03T06:56:27;6.30;99.90
64715;DHT22;51144;53.002;6.506;2023-04-03T06:58:54;6.40;99.90
64715;DHT22;51144;53.002;6.506;2023-04-03T07:01:22;6.70;99.90
64715;DHT22;51144;53.002;6.506;2023-04-03T07:03:48;6.80;99.90
64715;DHT22;51144;53.002;6.506;2023-04-03T07:06:15;6.90;99.90
64715;DHT22;51144;53.002;6.506;2023-04-03T07:08:42;6.80;99.90
64715;DHT22;51144;53.002;6.506;2023-04-03T07:11:08;6.80;99.90
64715;DHT22;51144;53.002;6.506;2023-04-03T07:13:35;7.00;99.90
64715;DHT22;51144;53.002;6.506;2023-04-03T07:16:01;7.10;99.90
64715;DHT22;51144;53.002;6.506;2023-04-03T07:18:29;7.20;99.90
64715;DHT22;51144;53.002;6.506;2023-04-03T07:20:54;7.10;99.90
64715;DHT22;51144;53.002;6.506;2023-04-03T07:23:21;7.00;99.90
64715;DHT22;51144;53.002;6.506;2023-04-03T07:25:49;7.00;99.90
64715;DHT22;51144;53.002;6.506;2023-04-03T07:28:16;7.30;99.90
64715;DHT22;51144;53.002;6.506;2023-04-03T07:30:46;7.40;99.90
64715;DHT22;51144;53.002;6.506;2023-04-03T07:33:13;7.00;99.90
64715;DHT22;51144;53.002;6.506;2023-04-03T07:35:40;7.10;99.90
64715;DHT22;51144;53.002;6.506;2023-04-03T07:38:06;7.10;99.90
64715;DHT22;51144;53.002;6.506;2023-04-03T07:40:32;7.40;99.90
64715;DHT22;51144;53.002;6.506;2023-04-03T07:42:58;7.40;99.90
64715;DHT22;51144;53.002;6.506;2023-04-03T07:45:24;7.20;99.90
64715;DHT22;51144;53.002;6.506;2023-04-03T07:47:50;7.70;99.90
64715;DHT22;51144;53.002;6.506;2023-04-03T07:50:16;7.50;99.90
64715;DHT22;51144;53.002;6.506;2023-04-03T07:52:42;7.50;99.90
64715;DHT22;51144;53.002;6.506;2023-04-03T07:55:08;7.60;99.90
64715;DHT22;51144;53.002;6.506;2023-04-03T07:57:34;7.50;99.90
64715;DHT22;51144;53.002;6.506;2023-04-03T08:00:00;7.70;99.90
64715;DHT22;51144;53.002;6.506;2023-04-03T08:02:26;7.60;99.90
64715;DHT22;51144;53.002;6.506;2023-04-03T08:04:52;7.70;99.90
64715;DHT22;51144;53.002;6.506;2023-04-03T08:07:17;7.60;99.60
64715;DHT22;51144;53.002;6.506;2023-04-03T08:09:43;7.60;99.90
64715;DHT22;51144;53.002;6.506;2023-04-03T08:12:09;7.70;99.90
64715;DHT22;51144;53.002;6.506;2023-04-03T08:14:36;8.00;99.90
64715;DHT22;51144;53.002;6.506;2023-04-03T08:17:02;8.30;99.90
64715;DHT22;51144;53.002;6.506;2023-04-03T08:19:30;8.50;99.90
64715;DHT22;51144;53.002;6.506;2023-04-03T08:21:56;8.60;98.80
64715;DHT22;51144;53.002;6.506;2023-04-03T08:24:24;8.20;97.80
64715;DHT22;51144;53.002;6.506;2023-04-03T08:26:50;8.30;99.40
64715;DHT22;51144;53.002;6.506;2023-04-03T08:29:16;8.20;98.50
64715;DHT22;51144;53.002;6.506;2023-04-03T08:31:42;7.90;98.50
64715;DHT22;51144;53.002;6.506;2023-04-03T08:34:08;7.90;98.60
64715;DHT22;51144;53.002;6.506;2023-04-03T08:36:34;8.00;99.30
64715;DHT22;51144;53.002;6.506;2023-04-03T08:39:00;8.30;98.20
64715;DHT22;51144;53.002;6.506;2023-04-03T08:41:38;8.30;98.90
64715;DHT22;51144;53.002;6.506;2023-04-03T08:47:32;8.70;96.80
64715;DHT22;51144;53.002;6.506;2023-04-03T08:50:06;8.80;96.60
64715;DHT22;51144;53.002;6.506;2023-04-03T08:52:52;9.10;95.40
64715;DHT22;51144;53.002;6.506;2023-04-03T08:57:51;9.40;93.70
64715;DHT22;51144;53.002;6.506;2023-04-03T09:00:23;9.40;97.30
64715;DHT22;51144;53.002;6.506;2023-04-03T09:02:54;9.60;93.20
64715;DHT22;51144;53.002;6.506;2023-04-03T09:05:42;9.60;93.00
64715;DHT22;51144;53.002;6.506;2023-04-03T09:08:27;9.90;92.70
64715;DHT22;51144;53.002;6.506;2023-04-03T09:11:09;10.10;93.50
64715;DHT22;51144;53.002;6.506;2023-04-03T09:14:11;10.40;93.20
64715;DHT22;51144;53.002;6.506;2023-04-03T09:16:55;10.60;94.80
64715;DHT22;51144;53.002;6.506;2023-04-03T09:22:11;10.20;90.70
64715;DHT22;51144;53.002;6.506;2023-04-03T09:24:39;10.00;89.80
64715;DHT22;51144;53.002;6.506;2023-04-03T09:27:09;9.90;90.90
64715;DHT22;51144;53.002;6.506;2023-04-03T09:29:39;10.10;93.60
64715;DHT22;51144;53.002;6.506;2023-04-03T09:32:29;10.10;86.00
64715;DHT22;51144;53.002;6.506;2023-04-03T09:35:04;10.30;85.20
64715;DHT22;51144;53.002;6.506;2023-04-03T09:37:43;10.40;85.50
64715;DHT22;51144;53.002;6.506;2023-04-03T09:40:29;10.80;86.30
64715;DHT22;51144;53.002;6.506;2023-04-03T09:43:18;10.90;86.40
64715;DHT22;51144;53.002;6.506;2023-04-03T09:45:46;11.10;85.90
64715;DHT22;51144;53.002;6.506;2023-04-03T09:53:39;11.10;90.60
64715;DHT22;51144;53.002;6.506;2023-04-03T09:56:20;11.00;84.00
64715;DHT22;51144;53.002;6.506;2023-04-03T09:59:06;11.30;83.60
64715;DHT22;51144;53.002;6.506;2023-04-03T10:01:38;11.50;81.50
64715;DHT22;51144;53.002;6.506;2023-04-03T10:06:34;11.10;74.20
64715;DHT22;51144;53.002;6.506;2023-04-03T10:09:06;11.10;78.80
64715;DHT22;51144;53.002;6.506;2023-04-03T10:14:27;11.20;79.00
64715;DHT22;51144;53.002;6.506;2023-04-03T10:20:26;11.40;70.40
64715;DHT22;51144;53.002;6.506;2023-04-03T10:25:42;11.50;70.00
64715;DHT22;51144;53.002;6.506;2023-04-03T10:28:15;11.30;73.60
64715;DHT22;51144;53.002;6.506;2023-04-03T10:31:03;11.50;71.80
64715;DHT22;51144;53.002;6.506;2023-04-03T10:36:37;11.50;73.10
64715;DHT22;51144;53.002;6.506;2023-04-03T10:39:15;11.70;71.70
64715;DHT22;51144;53.002;6.506;2023-04-03T10:44:31;11.90;71.30
64715;DHT22;51144;53.002;6.506;2023-04-03T10:47:24;12.10;73.70
64715;DHT22;51144;53.002;6.506;2023-04-03T10:50:27;12.60;78.00
64715;DHT22;51144;53.002;6.506;2023-04-03T10:53:20;12.70;70.00
64715;DHT22;51144;53.002;6.506;2023-04-03T10:58:36;12.60;71.00
64715;DHT22;51144;53.002;6.506;2023-04-03T11:01:19;12.60;70.50
64715;DHT22;51144;53.002;6.506;2023-04-03T11:03:49;12.00;67.10
64715;DHT22;51144;53.002;6.506;2023-04-03T11:06:19;11.80;69.80
64715;DHT22;51144;53.002;6.506;2023-04-03T11:09:05;11.50;65.60
64715;DHT22;51144;53.002;6.506;2023-04-03T11:11:36;11.70;70.00
64715;DHT22;51144;53.002;6.506;2023-04-03T11:14:21;11.90;68.80
64715;DHT22;51144;53.002;6.506;2023-04-03T11:19:39;11.60;63.30
64715;DHT22;51144;53.002;6.506;2023-04-03T11:22:35;11.70;66.80
64715;DHT22;51144;53.002;6.506;2023-04-03T11:25:23;11.90;66.50
64715;DHT22;51144;53.002;6.506;2023-04-03T11:27:58;12.20;69.80
64715;DHT22;51144;53.002;6.506;2023-04-03T11:30:33;12.40;65.70
64715;DHT22;51144;53.002;6.506;2023-04-03T11:33:40;12.60;67.80
64715;DHT22;51144;53.002;6.506;2023-04-03T11:36:12;13.20;70.40
64715;DHT22;51144;53.002;6.506;2023-04-03T11:38:43;13.00;71.70
64715;DHT22;51144;53.002;6.506;2023-04-03T11:41:10;12.80;67.00
64715;DHT22;51144;53.002;6.506;2023-04-03T11:44:00;12.80;63.50
64715;DHT22;51144;53.002;6.506;2023-04-03T11:47:00;12.70;67.70
64715;DHT22;51144;53.002;6.506;2023-04-03T11:49:58;12.50;65.60
64715;DHT22;51144;53.002;6.506;2023-04-03T12:13:42;12.60;64.90
64715;DHT22;51144;53.002;6.506;2023-04-03T12:21:23;12.50;67.90
64715;DHT22;51144;53.002;6.506;2023-04-03T12:29:24;13.10;68.90
64715;DHT22;51144;53.002;6.506;2023-04-03T12:40:16;12.90;65.90
64715;DHT22;51144;53.002;6.506;2023-04-03T12:43:01;13.30;70.40
64715;DHT22;51144;53.002;6.506;2023-04-03T12:45:41;13.50;67.80
64715;DHT22;51144;53.002;6.506;2023-04-03T12:48:15;13.60;67.90
64715;DHT22;51144;53.002;6.506;2023-04-03T12:50:41;12.90;64.60
64715;DHT22;51144;53.002;6.506;2023-04-03T12:53:19;12.90;64.70
64715;DHT22;51144;53.002;6.506;2023-04-03T12:55:46;12.60;62.10
64715;DHT22;51144;53.002;6.506;2023-04-03T12:58:16;12.40;65.60
64715;DHT22;51144;53.002;6.506;2023-04-03T13:00:42;12.40;66.10
64715;DHT22;51144;53.002;6.506;2023-04-03T13:03:22;12.60;66.30
64715;DHT22;51144;53.002;6.506;2023-04-03T13:05:49;12.50;63.10
64715;DHT22;51144;53.002;6.506;2023-04-03T13:08:22;12.10;64.80
64715;DHT22;51144;53.002;6.506;2023-04-03T13:13:23;12.50;66.20
64715;DHT22;51144;53.002;6.506;2023-04-03T13:15:49;12.50;65.50
64715;DHT22;51144;53.002;6.506;2023-04-03T13:18:35;12.50;65.70
64715;DHT22;51144;53.002;6.506;2023-04-03T13:21:20;12.70;67.00
64715;DHT22;51144;53.002;6.506;2023-04-03T13:23:50;12.90;65.30
64715;DHT22;51144;53.002;6.506;2023-04-03T13:26:18;12.90;63.70
64715;DHT22;51144;53.002;6.506;2023-04-03T13:28:46;13.10;64.80
64715;DHT22;51144;53.002;6.506;2023-04-03T13:31:25;13.20;63.80
64715;DHT22;51144;53.002;6.506;2023-04-03T13:34:07;13.40;66.00
64715;DHT22;51144;53.002;6.506;2023-04-03T13:36:39;13.30;66.20
64715;DHT22;51144;53.002;6.506;2023-04-03T13:41:57;13.40;64.50
64715;DHT22;51144;53.002;6.506;2023-04-03T13:46:50;13.30;64.40
64715;DHT22;51144;53.002;6.506;2023-04-03T13:49:21;13.40;65.90
64715;DHT22;51144;53.002;6.506;2023-04-03T13:51:49;13.30;63.60
64715;DHT22;51144;53.002;6.506;2023-04-03T13:54:22;13.50;67.40
64715;DHT22;51144;53.002;6.506;2023-04-03T13:56:55;13.50;64.80
64715;DHT22;51144;53.002;6.506;2023-04-03T13:59:31;13.50;66.60
64715;DHT22;51144;53.002;6.506;2023-04-03T14:04:32;13.40;61.80
64715;DHT22;51144;53.002;6.506;2023-04-03T14:06:58;13.20;62.40
64715;DHT22;51144;53.002;6.506;2023-04-03T14:09:27;13.10;63.00
64715;DHT22;51144;53.002;6.506;2023-04-03T14:12:00;13.40;62.50
64715;DHT22;51144;53.002;6.506;2023-04-03T14:14:34;13.50;61.90
64715;DHT22;51144;53.002;6.506;2023-04-03T14:17:03;14.10;63.80
64715;DHT22;51144;53.002;6.506;2023-04-03T14:19:35;13.60;60.40
64715;DHT22;51144;53.002;6.506;2023-04-03T14:22:11;13.00;60.60
64715;DHT22;51144;53.002;6.506;2023-04-03T14:24:38;13.20;64.10
64715;DHT22;51144;53.002;6.506;2023-04-03T14:27:14;13.00;63.40
64715;DHT22;51144;53.002;6.506;2023-04-03T14:29:41;12.60;61.70
64715;DHT22;51144;53.002;6.506;2023-04-03T14:32:07;12.80;62.20
64715;DHT22;51144;53.002;6.506;2023-04-03T14:34:32;13.60;64.30
64715;DHT22;51144;53.002;6.506;2023-04-03T14:36:58;13.80;61.80
64715;DHT22;51144;53.002;6.506;2023-04-03T14:39:24;13.30;63.00
64715;DHT22;51144;53.002;6.506;2023-04-03T14:41:50;13.30;63.40
64715;DHT22;51144;53.002;6.506;2023-04-03T14:44:15;13.10;61.20
64715;DHT22;51144;53.002;6.506;2023-04-03T14:46:43;13.20;63.40
64715;DHT22;51144;53.002;6.506;2023-04-03T14:49:19;13.20;62.30
64715;DHT22;51144;53.002;6.506;2023-04-03T14:51:45;12.60;63.00
64715;DHT22;51144;53.002;6.506;2023-04-03T14:54:17;12.50;66.40
64715;DHT22;51144;53.002;6.506;2023-04-03T14:56:44;12.10;63.40
64715;DHT22;51144;53.002;6.506;2023-04-03T14:59:12;11.80;66.70
64715;DHT22;51144;53.002;6.506;2023-04-03T15:01:39;11.70;66.50
64715;DHT22;51144;53.002;6.506;2023-04-03T15:04:15;11.40;63.80
64715;DHT22;51144;53.002;6.506;2023-04-03T15:06:42;11.40;66.80
64715;DHT22;51144;53.002;6.506;2023-04-03T15:09:19;11.10;64.10
64715;DHT22;51144;53.002;6.506;2023-04-03T15:11:46;11.10;66.70
64715;DHT22;51144;53.002;6.506;2023-04-03T15:14:11;11.00;66.60
64715;DHT22;51144;53.002;6.506;2023-04-03T15:16:37;10.90;68.40
64715;DHT22;51144;53.002;6.506;2023-04-03T15:19:03;10.80;68.00
64715;DHT22;51144;53.002;6.506;2023-04-03T15:21:28;10.60;68.30
64715;DHT22;51144;53.002;6.506;2023-04-03T15:23:54;10.50;68.00
64715;DHT22;51144;53.002;6.506;2023-04-03T15:26:20;10.40;67.10
64715;DHT22;51144;53.002;6.506;2023-04-03T15:28:46;10.40;67.50
64715;DHT22;51144;53.002;6.506;2023-04-03T15:31:12;10.30;68.10
64715;DHT22;51144;53.002;6.506;2023-04-03T15:33:38;10.30;66.70
64715;DHT22;51144;53.002;6.506;2023-04-03T15:36:04;10.40;68.10
64715;DHT22;51144;53.002;6.506;2023-04-03T15:38:30;10.20;67.10
64715;DHT22;51144;53.002;6.506;2023-04-03T15:40:56;10.20;66.30
64715;DHT22;51144;53.002;6.506;2023-04-03T15:43:22;10.20;66.90
64715;DHT22;51144;53.002;6.506;2023-04-03T15:45:49;10.20;68.40
64715;DHT22;51144;53.002;6.506;2023-04-03T15:48:16;10.20;68.90
64715;DHT22;51144;53.002;6.506;2023-04-03T15:50:42;10.20;67.50
64715;DHT22;51144;53.002;6.506;2023-04-03T15:53:08;10.20;67.90
64715;DHT22;51144;53.002;6.506;2023-04-03T15:55:36;10.20;67.60
64715;DHT22;51144;53.002;6.506;2023-04-03T15:58:02;10.10;67.50
64715;DHT22;51144;53.002;6.506;2023-04-03T16:00:29;10.10;68.30
64715;DHT22;51144;53.002;6.506;2023-04-03T16:03:00;10.00;67.10
64715;DHT22;51144;53.002;6.506;2023-04-03T16:05:29;10.10;69.00
64715;DHT22;51144;53.002;6.506;2023-04-03T16:07:55;9.90;69.70
64715;DHT22;51144;53.002;6.506;2023-04-03T16:10:22;9.90;69.20
64715;DHT22;51144;53.002;6.506;2023-04-03T16:12:48;9.90;68.50
64715;DHT22;51144;53.002;6.506;2023-04-03T16:15:13;9.80;70.30
64715;DHT22;51144;53.002;6.506;2023-04-03T16:17:39;9.80;69.00
64715;DHT22;51144;53.002;6.506;2023-04-03T16:20:09;9.70;69.30
64715;DHT22;51144;53.002;6.506;2023-04-03T16:22:35;9.80;70.60
64715;DHT22;51144;53.002;6.506;2023-04-03T16:25:02;9.80;71.40
64715;DHT22;51144;53.002;6.506;2023-04-03T16:27:29;9.70;70.50
64715;DHT22;51144;53.002;6.506;2023-04-03T16:29:57;9.50;70.60
64715;DHT22;51144;53.002;6.506;2023-04-03T16:32:23;9.60;71.50
64715;DHT22;51144;53.002;6.506;2023-04-03T16:34:51;9.60;70.20
64715;DHT22;51144;53.002;6.506;2023-04-03T16:37:17;9.60;70.60
64715;DHT22;51144;53.002;6.506;2023-04-03T16:39:43;9.50;69.30
64715;DHT22;51144;53.002;6.506;2023-04-03T16:42:09;9.50;69.80
64715;DHT22;51144;53.002;6.506;2023-04-03T16:44:35;9.40;70.80
64715;DHT22;51144;53.002;6.506;2023-04-03T16:47:01;9.50;70.10
64715;DHT22;51144;53.002;6.506;2023-04-03T16:49:27;9.50;71.20
64715;DHT22;51144;53.002;6.506;2023-04-03T16:51:58;9.40;69.50
64715;DHT22;51144;53.002;6.506;2023-04-03T16:54:24;9.40;69.60
64715;DHT22;51144;53.002;6.506;2023-04-03T16:56:50;9.40;69.90
64715;DHT22;51144;53.002;6.506;2023-04-03T16:59:16;9.20;68.00
64715;DHT22;51144;53.002;6.506;2023-04-03T17:01:41;9.20;68.50
64715;DHT22;51144;53.002;6.506;2023-04-03T17:04:07;9.10;69.20
64715;DHT22;51144;53.002;6.506;2023-04-03T17:06:33;9.00;69.80
64715;DHT22;51144;53.002;6.506;2023-04-03T17:08:59;8.90;69.70
64715;DHT22;51144;53.002;6.506;2023-04-03T17:11:24;8.80;69.60
64715;DHT22;51144;53.002;6.506;2023-04-03T17:13:51;8.70;71.00
64715;DHT22;51144;53.002;6.506;2023-04-03T17:16:16;8.70;71.80
64715;DHT22;51144;53.002;6.506;2023-04-03T17:18:43;8.70;71.40
64715;DHT22;51144;53.002;6.506;2023-04-03T17:21:11;8.60;72.30
64715;DHT22;51144;53.002;6.506;2023-04-03T17:23:37;8.60;72.50
64715;DHT22;51144;53.002;6.506;2023-04-03T17:26:04;8.60;71.70
64715;DHT22;51144;53.002;6.506;2023-04-03T17:28:30;8.50;72.70
64715;DHT22;51144;53.002;6.506;2023-04-03T17:30:58;8.50;73.00